Time;durP1;ratioP1;P1;durP2;ratioP2;P2;SDS_P1;SDS_P2;PMS_P1;PMS_P2;Temp;Humidity;BMP_temperature;BMP_pressure;BME280_temperature;BME280_humidity;BME280_pressure;Samples;Min_cycle;Max_cycle;Signal;HPM_P1;HPM_P2
2021/12/12 00:01:17;;;;;;;;;;;6.10;99.90;;;;;;5008283;28;19973;-70
2021/12/12 00:03:47;;;;;;;;;;;6.10;99.90;;;;;;5008378;28;19938;-69
2021/12/12 00:06:15;;;;;;;;;;;6.10;99.90;;;;;;5011571;28;20385;-70
2021/12/12 00:08:41;;;;;;;;;;;6.10;99.90;;;;;;5026133;28;19913;-68
2021/12/12 00:11:10;;;;;;;;;;;6.10;99.90;;;;;;5007233;28;19920;-69
2021/12/12 00:13:38;;;;;;;;;;;6.20;99.90;;;;;;5010643;28;20421;-70
2021/12/12 00:16:04;;;;;;;;;;;6.10;99.90;;;;;;5026034;28;20354;-68
2021/12/12 00:18:29;;;;;;;;;;;6.10;99.90;;;;;;5026059;28;19923;-70
2021/12/12 00:20:55;;;;;;;;;;;6.10;99.90;;;;;;5029796;28;19916;-66
2021/12/12 00:23:21;;;;;;;;;;;6.10;99.90;;;;;;5008967;28;19932;-69
2021/12/12 00:25:48;;;;;;;;;;;6.10;99.90;;;;;;5009558;28;20456;-68
2021/12/12 00:28:15;;;;;;;;;;;6.10;99.90;;;;;;5011609;28;19918;-68
2021/12/12 00:30:42;;;;;;;;;;;6.00;99.90;;;;;;5013817;28;19917;-70
2021/12/12 00:33:09;;;;;;;;;;;6.10;99.90;;;;;;5020448;28;19926;-69
2021/12/12 00:35:35;;;;;;;;;;;6.10;99.90;;;;;;5011275;28;19917;-70
2021/12/12 00:38:04;;;;;;;;;;;6.10;99.90;;;;;;5010839;28;19920;-70
2021/12/12 00:40:32;;;;;;;;;;;6.00;99.90;;;;;;5026506;28;19909;-69
2021/12/12 00:43:01;;;;;;;;;;;6.00;99.90;;;;;;5026631;28;20056;-70
2021/12/12 00:45:27;;;;;;;;;;;6.00;99.90;;;;;;5027172;28;19909;-69
2021/12/12 00:47:53;;;;;;;;;;;6.00;99.90;;;;;;5011962;28;20301;-70
2021/12/12 00:50:39;;;;;;;;;;;6.00;99.90;;;;;;5012716;28;19914;-69
2021/12/12 00:53:05;;;;;;;;;;;6.00;99.90;;;;;;5010340;28;19914;-69
2021/12/12 00:55:37;;;;;;;;;;;6.00;99.90;;;;;;5018319;28;19969;-70
2021/12/12 00:58:04;;;;;;;;;;;6.00;99.90;;;;;;5014509;28;19912;-69
2021/12/12 01:00:36;;;;;;;;;;;6.00;99.90;;;;;;5034024;28;19918;-70
2021/12/12 01:03:02;;;;;;;;;;;6.00;99.90;;;;;;5041536;28;19917;-70
2021/12/12 01:05:28;;;;;;;;;;;6.00;99.90;;;;;;5023730;28;19989;-69
2021/12/12 01:07:54;;;;;;;;;;;6.00;99.90;;;;;;5019463;28;19913;-69
2021/12/12 01:10:23;;;;;;;;;;;6.00;99.90;;;;;;5012828;28;19944;-70
2021/12/12 01:12:50;;;;;;;;;;;6.00;99.90;;;;;;5011746;28;20011;-69
2021/12/12 01:15:41;;;;;;;;;;;6.00;99.90;;;;;;5011790;28;19917;-69
2021/12/12 01:18:10;;;;;;;;;;;6.00;99.90;;;;;;5011480;28;20601;-67
2021/12/12 01:20:37;;;;;;;;;;;6.00;99.90;;;;;;5011697;28;19968;-71
2021/12/12 01:23:07;;;;;;;;;;;6.00;99.90;;;;;;5032259;28;19997;-69
2021/12/12 01:25:36;;;;;;;;;;;6.00;99.90;;;;;;5010697;28;19945;-67
2021/12/12 01:28:03;;;;;;;;;;;6.00;99.90;;;;;;5010682;28;19937;-70
2021/12/12 01:30:29;;;;;;;;;;;6.00;99.90;;;;;;5010145;28;19920;-69
2021/12/12 01:32:55;;;;;;;;;;;6.00;99.90;;;;;;5013412;28;19926;-68
2021/12/12 01:35:21;;;;;;;;;;;6.10;99.90;;;;;;5010760;28;19914;-68
2021/12/12 01:38:51;;;;;;;;;;;6.00;99.90;;;;;;5009993;28;19913;-68
2021/12/12 01:40:38;;;;;;;;;;;6.00;99.90;;;;;;5010089;28;19917;-69
2021/12/12 01:43:19;;;;;;;;;;;6.00;99.90;;;;;;5010769;28;19963;-68
2021/12/12 01:45:46;;;;;;;;;;;6.00;99.90;;;;;;5008973;28;19924;-69
2021/12/12 01:48:14;;;;;;;;;;;6.00;99.90;;;;;;5009971;28;20374;-72
2021/12/12 01:50:43;;;;;;;;;;;6.10;99.90;;;;;;5008962;28;20273;-67
2021/12/12 01:53:11;;;;;;;;;;;6.00;99.90;;;;;;5015097;28;20527;-70
2021/12/12 01:55:41;;;;;;;;;;;6.00;99.90;;;;;;5015724;28;19910;-69
2021/12/12 01:58:11;;;;;;;;;;;6.00;99.90;;;;;;5019541;28;19929;-70
2021/12/12 02:00:40;;;;;;;;;;;6.00;99.90;;;;;;5036514;28;20026;-70
2021/12/12 02:03:07;;;;;;;;;;;6.10;99.90;;;;;;5014065;28;19910;-69
2021/12/12 02:05:33;;;;;;;;;;;6.10;99.90;;;;;;5011304;28;19922;-72
2021/12/12 02:08:00;;;;;;;;;;;6.10;99.90;;;;;;5031427;28;19956;-68
2021/12/12 02:10:34;;;;;;;;;;;6.10;99.90;;;;;;5024618;28;19917;-67
2021/12/12 02:13:04;;;;;;;;;;;6.10;99.90;;;;;;5020667;28;20331;-70
2021/12/12 02:15:32;;;;;;;;;;;6.10;99.90;;;;;;5021646;28;20495;-69
2021/12/12 02:17:58;;;;;;;;;;;6.10;99.90;;;;;;5010780;28;19910;-70
2021/12/12 02:20:38;;;;;;;;;;;6.10;99.90;;;;;;5029738;28;19909;-69
2021/12/12 02:23:13;;;;;;;;;;;6.10;99.90;;;;;;5024314;28;19936;-68
2021/12/12 02:36:40;;;;;;;;;;;6.10;99.90;;;;;;5011075;28;20408;-72
2021/12/12 02:39:08;;;;;;;;;;;6.10;99.90;;;;;;5016078;28;19916;-71
2021/12/12 02:41:34;;;;;;;;;;;6.10;99.90;;;;;;5025125;28;19910;-69
2021/12/12 02:44:01;;;;;;;;;;;6.10;99.90;;;;;;5013667;28;19917;-68
2021/12/12 02:46:29;;;;;;;;;;;6.20;99.90;;;;;;5013638;28;19916;-70
2021/12/12 02:49:05;;;;;;;;;;;6.20;99.90;;;;;;5014055;28;19909;-70
2021/12/12 02:51:30;;;;;;;;;;;6.20;99.90;;;;;;5026827;28;20027;-70
2021/12/12 02:53:56;;;;;;;;;;;6.20;99.90;;;;;;5026598;28;19976;-68
2021/12/12 02:56:27;;;;;;;;;;;6.20;99.90;;;;;;5017324;28;19917;-68
2021/12/12 02:58:53;;;;;;;;;;;6.20;99.90;;;;;;5021672;28;19969;-72
2021/12/12 03:01:32;;;;;;;;;;;6.30;99.90;;;;;;5016048;28;19941;-71
2021/12/12 03:03:58;;;;;;;;;;;6.20;99.90;;;;;;5015262;28;19914;-69
2021/12/12 03:06:27;;;;;;;;;;;6.30;99.90;;;;;;5014561;28;19916;-68
2021/12/12 03:08:55;;;;;;;;;;;6.30;99.90;;;;;;5012080;28;20001;-70
2021/12/12 03:11:20;;;;;;;;;;;6.30;99.90;;;;;;5014958;28;19956;-71
2021/12/12 03:13:46;;;;;;;;;;;6.30;99.90;;;;;;5014712;28;19925;-69
2021/12/12 03:16:12;;;;;;;;;;;6.40;99.90;;;;;;5013910;28;20517;-68
2021/12/12 03:18:40;;;;;;;;;;;6.50;99.90;;;;;;5014430;28;19914;-71
2021/12/12 03:21:14;;;;;;;;;;;6.50;99.90;;;;;;5013321;28;19918;-70
2021/12/12 03:23:41;;;;;;;;;;;6.50;99.90;;;;;;5018231;28;19920;-71
2021/12/12 03:26:08;;;;;;;;;;;6.50;99.90;;;;;;5012044;28;19909;-70
2021/12/12 03:28:36;;;;;;;;;;;6.60;99.90;;;;;;5014349;28;19910;-71
2021/12/12 03:31:03;;;;;;;;;;;6.60;99.90;;;;;;5025346;28;19931;-70
2021/12/12 03:33:30;;;;;;;;;;;6.60;99.90;;;;;;5009688;28;19918;-71
2021/12/12 03:35:57;;;;;;;;;;;6.70;99.90;;;;;;5024478;28;19909;-69
2021/12/12 03:38:27;;;;;;;;;;;6.60;99.90;;;;;;5008607;28;19959;-70
2021/12/12 03:40:53;;;;;;;;;;;6.60;99.90;;;;;;5008391;28;19980;-69
2021/12/12 03:43:19;;;;;;;;;;;6.70;99.90;;;;;;5008970;28;19917;-72
2021/12/12 03:45:44;;;;;;;;;;;6.70;99.90;;;;;;5008961;28;20001;-72
2021/12/12 03:48:12;;;;;;;;;;;6.70;99.90;;;;;;5023989;28;19937;-72
2021/12/12 03:50:40;;;;;;;;;;;6.70;99.90;;;;;;5005734;28;19918;-73
2021/12/12 03:53:06;;;;;;;;;;;6.80;99.90;;;;;;5008119;28;20399;-71
2021/12/12 03:55:31;;;;;;;;;;;6.80;99.90;;;;;;5006927;28;19957;-70
2021/12/12 03:57:57;;;;;;;;;;;6.80;99.90;;;;;;5007921;28;19921;-71
2021/12/12 04:00:26;;;;;;;;;;;6.80;99.90;;;;;;5008166;28;19910;-71
2021/12/12 04:02:51;;;;;;;;;;;6.80;99.90;;;;;;5019140;28;19917;-73
2021/12/12 04:05:17;;;;;;;;;;;6.80;99.90;;;;;;5012031;28;20592;-70
2021/12/12 04:07:42;;;;;;;;;;;6.90;99.90;;;;;;5027099;28;19915;-69
2021/12/12 04:10:09;;;;;;;;;;;6.90;99.90;;;;;;5047492;28;19924;-71
2021/12/12 04:12:35;;;;;;;;;;;6.80;99.90;;;;;;5019216;28;20000;-70
2021/12/12 04:15:00;;;;;;;;;;;6.90;99.90;;;;;;5011760;28;20008;-71
2021/12/12 04:17:28;;;;;;;;;;;6.90;99.90;;;;;;5011603;28;19914;-70
2021/12/12 04:19:55;;;;;;;;;;;6.90;99.90;;;;;;5011265;28;20327;-70
2021/12/12 04:22:20;;;;;;;;;;;6.90;99.90;;;;;;5011594;28;19963;-71
2021/12/12 04:24:47;;;;;;;;;;;7.00;99.90;;;;;;5012895;28;19945;-67
2021/12/12 04:27:14;;;;;;;;;;;7.00;99.90;;;;;;5011756;28;19959;-72
2021/12/12 04:29:41;;;;;;;;;;;7.00;99.90;;;;;;5011260;28;19914;-72
2021/12/12 04:32:08;;;;;;;;;;;7.00;99.90;;;;;;5010948;28;20556;-71
2021/12/12 04:34:36;;;;;;;;;;;7.00;99.90;;;;;;5010832;28;19921;-70
2021/12/12 04:37:03;;;;;;;;;;;7.00;99.90;;;;;;5012548;28;19913;-70
2021/12/12 04:39:31;;;;;;;;;;;7.00;99.90;;;;;;5012756;28;20385;-71
2021/12/12 04:41:59;;;;;;;;;;;7.00;99.90;;;;;;5011796;28;19956;-71
2021/12/12 04:44:27;;;;;;;;;;;7.10;99.90;;;;;;5010923;28;20004;-72
2021/12/12 04:50:21;;;;;;;;;;;7.10;99.90;;;;;;5011886;28;19932;-69
2021/12/12 04:53:05;;;;;;;;;;;7.10;99.90;;;;;;5010834;28;20505;-70
2021/12/12 04:55:37;;;;;;;;;;;7.20;99.90;;;;;;5030438;28;20007;-72
2021/12/12 04:58:12;;;;;;;;;;;7.20;99.90;;;;;;5027251;28;19897;-72
2021/12/12 05:00:40;;;;;;;;;;;7.20;99.90;;;;;;5029720;28;19913;-70
2021/12/12 05:03:24;;;;;;;;;;;7.30;99.90;;;;;;5020493;28;19968;-69
2021/12/12 05:05:54;;;;;;;;;;;7.30;99.90;;;;;;5015496;28;19967;-70
2021/12/12 05:08:30;;;;;;;;;;;7.30;99.90;;;;;;5019690;28;19961;-70
2021/12/12 05:10:58;;;;;;;;;;;7.40;99.90;;;;;;5009249;28;19961;-69
2021/12/12 05:13:46;;;;;;;;;;;7.40;99.90;;;;;;5010497;28;19944;-71
2021/12/12 05:16:16;;;;;;;;;;;7.40;99.90;;;;;;5010633;28;19910;-71
2021/12/12 05:18:49;;;;;;;;;;;7.40;99.90;;;;;;5010596;28;20362;-72
2021/12/12 05:21:17;;;;;;;;;;;7.40;99.90;;;;;;5013956;28;19951;-68
2021/12/12 05:23:47;;;;;;;;;;;7.40;99.90;;;;;;5010281;28;19929;-72
2021/12/12 05:26:15;;;;;;;;;;;7.40;99.90;;;;;;5010077;28;19910;-71
2021/12/12 05:29:01;;;;;;;;;;;7.40;99.90;;;;;;5010532;28;20362;-69
2021/12/12 05:31:27;;;;;;;;;;;7.50;99.90;;;;;;5010891;28;20004;-72
2021/12/12 05:33:54;;;;;;;;;;;7.40;99.90;;;;;;5010590;28;19913;-70
2021/12/12 05:36:20;;;;;;;;;;;7.40;99.90;;;;;;5010945;28;19916;-71
2021/12/12 05:38:48;;;;;;;;;;;7.50;99.90;;;;;;5008800;28;19913;-73
2021/12/12 05:41:17;;;;;;;;;;;7.60;99.90;;;;;;5010518;28;19909;-72
2021/12/12 05:43:43;;;;;;;;;;;7.50;99.90;;;;;;5009309;28;20019;-72
2021/12/12 05:46:08;;;;;;;;;;;7.50;99.90;;;;;;5011274;28;20429;-71
2021/12/12 05:48:34;;;;;;;;;;;7.60;99.90;;;;;;5012875;28;19916;-73
2021/12/12 05:51:00;;;;;;;;;;;7.60;99.90;;;;;;5028411;28;19945;-72
2021/12/12 05:53:25;;;;;;;;;;;7.60;99.90;;;;;;5035886;28;19918;-70
2021/12/12 05:55:51;;;;;;;;;;;7.60;99.90;;;;;;5029405;28;19948;-73
2021/12/12 05:58:18;;;;;;;;;;;7.70;99.90;;;;;;5019397;28;19921;-73
2021/12/12 06:00:46;;;;;;;;;;;7.70;99.90;;;;;;5017821;28;19910;-72
2021/12/12 06:03:13;;;;;;;;;;;7.70;99.90;;;;;;5009371;28;20408;-72
2021/12/12 06:05:39;;;;;;;;;;;7.70;99.90;;;;;;5010669;28;19925;-71
2021/12/12 06:08:06;;;;;;;;;;;7.70;99.90;;;;;;5012291;28;19944;-72
2021/12/12 06:10:32;;;;;;;;;;;7.80;99.90;;;;;;5013271;28;20301;-72
2021/12/12 06:12:58;;;;;;;;;;;7.80;99.90;;;;;;5008621;28;19918;-72
2021/12/12 06:15:27;;;;;;;;;;;7.80;99.90;;;;;;5006963;28;20019;-72
2021/12/12 06:17:53;;;;;;;;;;;7.90;99.90;;;;;;5008112;28;19918;-70
2021/12/12 06:20:19;;;;;;;;;;;7.80;99.90;;;;;;5009657;28;20205;-70
2021/12/12 06:22:44;;;;;;;;;;;7.80;99.90;;;;;;5010699;28;19920;-71
2021/12/12 06:25:10;;;;;;;;;;;7.90;99.90;;;;;;5012614;28;20361;-70
2021/12/12 06:27:37;;;;;;;;;;;7.90;99.90;;;;;;5010642;28;20410;-72
2021/12/12 06:30:05;;;;;;;;;;;7.80;99.90;;;;;;5005451;28;19914;-70
2021/12/12 06:32:31;;;;;;;;;;;7.80;99.90;;;;;;5007390;28;19925;-73
2021/12/12 06:34:57;;;;;;;;;;;7.80;99.90;;;;;;5010010;28;20579;-68
2021/12/12 06:37:23;;;;;;;;;;;7.80;99.90;;;;;;5012747;28;19916;-68
2021/12/12 06:39:48;;;;;;;;;;;7.80;99.90;;;;;;5011784;28;19913;-71
2021/12/12 06:42:14;;;;;;;;;;;7.80;99.90;;;;;;5007667;28;19947;-74
2021/12/12 06:44:40;;;;;;;;;;;7.90;99.90;;;;;;5004957;28;20241;-70
2021/12/12 06:47:08;;;;;;;;;;;7.80;99.90;;;;;;5012389;28;19948;-73
2021/12/12 06:49:34;;;;;;;;;;;7.80;99.90;;;;;;5003431;28;19913;-74
2021/12/12 06:52:00;;;;;;;;;;;7.80;99.90;;;;;;5005051;28;19913;-71
2021/12/12 06:54:27;;;;;;;;;;;7.80;99.90;;;;;;5008640;28;19928;-72
2021/12/12 06:56:55;;;;;;;;;;;7.80;99.90;;;;;;5009033;28;19916;-68
2021/12/12 06:59:22;;;;;;;;;;;7.80;99.90;;;;;;5008478;28;19913;-73
2021/12/12 07:01:48;;;;;;;;;;;7.90;99.90;;;;;;5004609;28;19920;-70
2021/12/12 07:04:18;;;;;;;;;;;7.90;99.90;;;;;;5008769;28;20309;-72
2021/12/12 07:06:44;;;;;;;;;;;7.90;99.90;;;;;;5016494;28;20407;-71
2021/12/12 07:09:10;;;;;;;;;;;8.00;99.90;;;;;;5023206;28;19945;-72
2021/12/12 07:11:37;;;;;;;;;;;8.00;99.90;;;;;;5008251;28;19921;-71
2021/12/12 07:14:04;;;;;;;;;;;8.00;99.90;;;;;;5022751;28;19991;-73
2021/12/12 07:16:31;;;;;;;;;;;8.00;99.90;;;;;;5005145;28;19918;-71
2021/12/12 07:18:56;;;;;;;;;;;7.90;99.90;;;;;;5007862;28;19910;-73
2021/12/12 07:21:23;;;;;;;;;;;8.00;99.90;;;;;;5008755;28;19913;-67
2021/12/12 07:23:49;;;;;;;;;;;8.00;99.90;;;;;;5007362;28;20165;-72
2021/12/12 07:26:16;;;;;;;;;;;8.00;99.90;;;;;;5008092;28;19909;-73
2021/12/12 07:28:42;;;;;;;;;;;8.00;99.90;;;;;;5005983;28;20400;-69
2021/12/12 07:31:18;;;;;;;;;;;8.00;99.90;;;;;;5007440;28;20021;-72
2021/12/12 07:33:44;;;;;;;;;;;8.10;99.90;;;;;;5007301;28;20369;-70
2021/12/12 07:36:11;;;;;;;;;;;8.10;99.90;;;;;;5005482;28;20421;-72
2021/12/12 07:38:41;;;;;;;;;;;8.20;99.90;;;;;;5007579;28;20362;-71
2021/12/12 07:41:06;;;;;;;;;;;8.20;99.90;;;;;;5007020;28;19961;-71
2021/12/12 07:43:32;;;;;;;;;;;8.20;99.90;;;;;;5007498;28;20131;-71
2021/12/12 07:45:58;;;;;;;;;;;8.20;99.90;;;;;;5008638;28;19917;-73
2021/12/12 07:48:24;;;;;;;;;;;8.30;99.90;;;;;;5007873;28;20391;-71
2021/12/12 07:50:50;;;;;;;;;;;8.20;99.90;;;;;;5007852;28;20393;-75
2021/12/12 07:53:16;;;;;;;;;;;8.30;99.90;;;;;;5007820;28;19952;-72
2021/12/12 07:55:42;;;;;;;;;;;8.30;99.90;;;;;;5009288;28;20043;-74
2021/12/12 07:58:09;;;;;;;;;;;8.30;99.90;;;;;;5014583;28;19918;-72
2021/12/12 08:00:35;;;;;;;;;;;8.40;99.90;;;;;;5008337;28;20013;-74
2021/12/12 08:03:01;;;;;;;;;;;8.30;99.90;;;;;;5015301;28;19960;-73
2021/12/12 08:05:28;;;;;;;;;;;8.40;99.90;;;;;;5007563;28;19917;-72
2021/12/12 08:07:58;;;;;;;;;;;8.30;99.90;;;;;;5008043;28;20283;-72
2021/12/12 08:10:24;;;;;;;;;;;8.40;99.90;;;;;;5008536;28;19936;-72
2021/12/12 08:12:49;;;;;;;;;;;8.40;99.90;;;;;;5007095;28;19913;-70
2021/12/12 08:15:16;;;;;;;;;;;8.40;99.90;;;;;;5009198;28;19914;-73
2021/12/12 08:17:42;;;;;;;;;;;8.50;99.90;;;;;;5004590;28;19914;-72
2021/12/12 08:20:08;;;;;;;;;;;8.50;99.90;;;;;;5015961;28;19921;-71
2021/12/12 08:22:34;;;;;;;;;;;8.50;99.90;;;;;;5021604;28;19909;-74
2021/12/12 08:25:01;;;;;;;;;;;8.50;99.90;;;;;;5017116;28;19921;-70
2021/12/12 08:27:27;;;;;;;;;;;8.50;99.90;;;;;;5011276;28;19914;-69
2021/12/12 08:29:52;;;;;;;;;;;8.50;99.90;;;;;;5010722;28;19939;-70
2021/12/12 08:32:18;;;;;;;;;;;8.50;99.90;;;;;;5008556;28;19913;-72
2021/12/12 08:34:44;;;;;;;;;;;8.50;99.90;;;;;;5017490;28;19928;-72
2021/12/12 08:37:09;;;;;;;;;;;8.60;99.90;;;;;;5027665;28;19917;-72
2021/12/12 08:39:36;;;;;;;;;;;8.60;99.90;;;;;;5031366;28;19909;-70
2021/12/12 08:42:03;;;;;;;;;;;8.60;99.90;;;;;;5017471;28;19991;-72
2021/12/12 08:44:29;;;;;;;;;;;8.60;99.90;;;;;;5011255;28;19920;-71
2021/12/12 08:46:57;;;;;;;;;;;8.50;99.90;;;;;;5007704;28;20196;-72
2021/12/12 08:49:24;;;;;;;;;;;8.60;99.90;;;;;;5024903;28;19913;-72
2021/12/12 08:51:54;;;;;;;;;;;8.60;99.90;;;;;;5012327;28;19916;-71
2021/12/12 08:54:26;;;;;;;;;;;8.60;99.90;;;;;;5009443;28;19960;-71
2021/12/12 08:56:55;;;;;;;;;;;8.60;99.90;;;;;;5009899;28;20508;-72
2021/12/12 08:59:23;;;;;;;;;;;8.70;99.90;;;;;;5011666;28;19914;-72
2021/12/12 09:01:50;;;;;;;;;;;8.70;99.90;;;;;;5006829;28;20382;-72
2021/12/12 09:04:16;;;;;;;;;;;8.70;99.90;;;;;;5010262;28;19995;-70
2021/12/12 09:06:47;;;;;;;;;;;8.70;99.90;;;;;;5010292;28;20013;-72
2021/12/12 09:09:15;;;;;;;;;;;8.70;99.90;;;;;;5009150;28;19917;-72
2021/12/12 09:11:55;;;;;;;;;;;8.70;99.90;;;;;;5010849;28;20285;-71
2021/12/12 09:14:32;;;;;;;;;;;8.70;99.90;;;;;;5008971;28;19976;-73
2021/12/12 09:17:00;;;;;;;;;;;8.70;99.90;;;;;;5008903;28;20278;-72
2021/12/12 09:19:29;;;;;;;;;;;8.70;99.90;;;;;;5008604;28;19922;-72
2021/12/12 09:21:57;;;;;;;;;;;8.70;99.90;;;;;;5007123;28;20349;-71
2021/12/12 09:24:33;;;;;;;;;;;8.80;99.90;;;;;;5024386;28;19921;-70
2021/12/12 09:27:03;;;;;;;;;;;8.80;99.90;;;;;;5012266;28;19909;-71
2021/12/12 09:29:35;;;;;;;;;;;8.80;99.90;;;;;;5031440;28;19920;-73
2021/12/12 09:32:08;;;;;;;;;;;8.80;99.90;;;;;;5031139;28;20025;-70
2021/12/12 09:34:40;;;;;;;;;;;8.80;99.90;;;;;;5030686;28;19989;-72
2021/12/12 09:37:09;;;;;;;;;;;8.90;99.90;;;;;;5019270;28;19916;-68
2021/12/12 09:39:41;;;;;;;;;;;8.90;99.90;;;;;;5011714;28;19913;-73
2021/12/12 09:42:25;;;;;;;;;;;8.80;99.90;;;;;;5009327;28;20004;-73
2021/12/12 09:45:01;;;;;;;;;;;8.90;99.90;;;;;;5007790;28;19932;-71
2021/12/12 09:47:56;;;;;;;;;;;8.90;99.90;;;;;;5005944;28;19918;-73
2021/12/12 09:53:36;;;;;;;;;;;8.90;99.90;;;;;;5016292;28;19960;-71
2021/12/12 09:56:05;;;;;;;;;;;8.90;99.90;;;;;;5009533;28;19959;-72
2021/12/12 09:58:47;;;;;;;;;;;8.90;99.90;;;;;;5010912;28;20322;-72
2021/12/12 10:01:20;;;;;;;;;;;9.00;99.90;;;;;;5012238;28;20370;-70
2021/12/12 10:03:54;;;;;;;;;;;9.00;99.90;;;;;;5013214;28;19925;-72
2021/12/12 10:06:25;;;;;;;;;;;8.90;99.90;;;;;;5011542;28;19913;-72
2021/12/12 10:09:20;;;;;;;;;;;9.00;99.90;;;;;;5008718;28;20432;-70
2021/12/12 10:11:48;;;;;;;;;;;9.00;99.90;;;;;;4998563;28;19943;-72
2021/12/12 10:14:13;;;;;;;;;;;9.00;99.90;;;;;;5008677;28;20281;-71
2021/12/12 10:16:58;;;;;;;;;;;9.10;99.90;;;;;;5007756;28;19913;-72
2021/12/12 10:19:30;;;;;;;;;;;9.10;99.90;;;;;;5023021;28;19913;-72
2021/12/12 10:22:01;;;;;;;;;;;9.10;99.90;;;;;;5007718;28;19996;-71
2021/12/12 10:24:31;;;;;;;;;;;9.10;99.90;;;;;;5011177;28;20386;-70
2021/12/12 10:27:15;;;;;;;;;;;9.10;99.90;;;;;;5009743;28;19945;-71
2021/12/12 10:29:59;;;;;;;;;;;9.20;99.90;;;;;;5007011;28;20419;-70
2021/12/12 10:32:32;;;;;;;;;;;9.20;99.90;;;;;;5013754;28;19917;-71
2021/12/12 10:35:03;;;;;;;;;;;9.20;99.90;;;;;;5009003;28;19921;-70
2021/12/12 10:37:33;;;;;;;;;;;9.30;99.90;;;;;;5009237;28;19920;-70
2021/12/12 10:40:01;;;;;;;;;;;9.30;99.90;;;;;;5008657;28;19957;-71
2021/12/12 10:42:28;;;;;;;;;;;9.30;99.90;;;;;;5009080;28;19910;-70
2021/12/12 10:44:57;;;;;;;;;;;9.30;99.90;;;;;;5009489;28;20002;-70
2021/12/12 10:47:29;;;;;;;;;;;9.40;99.90;;;;;;5011502;28;19913;-70
2021/12/12 10:50:13;;;;;;;;;;;9.40;99.90;;;;;;5004342;28;19917;-70
2021/12/12 10:52:47;;;;;;;;;;;9.40;99.90;;;;;;5009309;28;20051;-70
2021/12/12 10:55:13;;;;;;;;;;;9.40;99.90;;;;;;5011898;28;19913;-70
2021/12/12 10:57:39;;;;;;;;;;;9.40;99.90;;;;;;5010155;28;20378;-70
2021/12/12 11:00:08;;;;;;;;;;;9.50;99.90;;;;;;5014932;28;19914;-69
2021/12/12 11:02:41;;;;;;;;;;;9.50;99.90;;;;;;5012957;28;19913;-72
2021/12/12 11:05:11;;;;;;;;;;;9.50;99.90;;;;;;5012490;28;19918;-71
2021/12/12 11:07:46;;;;;;;;;;;9.50;99.90;;;;;;5008890;28;19924;-71
2021/12/12 11:10:18;;;;;;;;;;;9.60;99.90;;;;;;5006259;28;19964;-71
2021/12/12 11:12:50;;;;;;;;;;;9.60;99.90;;;;;;5007024;28;19921;-71
2021/12/12 11:15:20;;;;;;;;;;;9.60;99.90;;;;;;5005967;28;19923;-71
2021/12/12 11:17:50;;;;;;;;;;;9.60;99.90;;;;;;5008088;28;19914;-70
2021/12/12 11:20:19;;;;;;;;;;;9.60;99.90;;;;;;5009129;28;20003;-69
2021/12/12 11:22:52;;;;;;;;;;;9.60;99.90;;;;;;5008671;28;19956;-69
2021/12/12 11:25:36;;;;;;;;;;;9.60;99.90;;;;;;5004422;28;19967;-70
2021/12/12 11:28:31;;;;;;;;;;;9.70;99.90;;;;;;5005665;28;19913;-72
2021/12/12 11:30:56;;;;;;;;;;;9.70;99.90;;;;;;4997378;28;20305;-70
2021/12/12 11:33:23;;;;;;;;;;;9.70;99.90;;;;;;5007617;28;19925;-70
2021/12/12 11:35:52;;;;;;;;;;;9.70;99.90;;;;;;5010492;28;19925;-70
2021/12/12 11:38:24;;;;;;;;;;;9.70;99.90;;;;;;5004805;28;20437;-68
2021/12/12 11:40:52;;;;;;;;;;;9.70;99.90;;;;;;5011031;28;19928;-71
2021/12/12 11:43:18;;;;;;;;;;;9.70;99.90;;;;;;5012408;28;20060;-71
2021/12/12 11:45:46;;;;;;;;;;;9.80;99.90;;;;;;5007442;28;20000;-70
2021/12/12 11:48:35;;;;;;;;;;;9.80;99.90;;;;;;5006013;28;19914;-69
2021/12/12 11:51:00;;;;;;;;;;;9.90;99.90;;;;;;4997002;28;19960;-70
2021/12/12 11:53:35;;;;;;;;;;;9.80;99.90;;;;;;5018111;28;19985;-72
2021/12/12 11:56:06;;;;;;;;;;;9.80;99.90;;;;;;5012407;28;19924;-71
2021/12/12 11:58:37;;;;;;;;;;;9.80;99.90;;;;;;5008046;28;19924;-72
2021/12/12 12:01:16;;;;;;;;;;;9.80;99.90;;;;;;5006724;28;19918;-71
2021/12/12 12:03:58;;;;;;;;;;;9.80;99.90;;;;;;5012601;28;19917;-70
2021/12/12 12:06:43;;;;;;;;;;;9.80;99.90;;;;;;5011938;28;19917;-69
2021/12/12 12:09:16;;;;;;;;;;;9.80;99.90;;;;;;5005507;28;19917;-70
2021/12/12 12:11:41;;;;;;;;;;;9.80;99.90;;;;;;5007275;28;20000;-71
2021/12/12 12:14:14;;;;;;;;;;;9.80;99.90;;;;;;5007557;28;19913;-71
2021/12/12 12:16:42;;;;;;;;;;;9.80;99.90;;;;;;5006756;28;19929;-72
2021/12/12 12:19:15;;;;;;;;;;;9.90;99.90;;;;;;5005811;28;21341;-71
2021/12/12 12:21:59;;;;;;;;;;;9.90;99.90;;;;;;5014086;28;19914;-71
2021/12/12 12:24:39;;;;;;;;;;;9.90;99.90;;;;;;5025690;28;19936;-70
2021/12/12 12:27:08;;;;;;;;;;;9.90;99.90;;;;;;5028109;28;20248;-71
2021/12/12 12:29:51;;;;;;;;;;;10.00;99.90;;;;;;5013897;28;19918;-70
2021/12/12 12:32:35;;;;;;;;;;;10.00;99.90;;;;;;5018516;28;19920;-70
2021/12/12 12:35:19;;;;;;;;;;;10.00;99.90;;;;;;5007435;28;20365;-70
2021/12/12 12:38:03;;;;;;;;;;;10.00;99.90;;;;;;5011603;28;19925;-71
2021/12/12 12:40:38;;;;;;;;;;;10.00;99.90;;;;;;5026469;28;20017;-71
2021/12/12 12:43:22;;;;;;;;;;;10.00;99.90;;;;;;5012019;28;19995;-71
2021/12/12 12:46:06;;;;;;;;;;;10.00;99.90;;;;;;5012361;28;19913;-72
2021/12/12 12:48:34;;;;;;;;;;;10.00;99.90;;;;;;5011743;28;20005;-70
2021/12/12 12:51:18;;;;;;;;;;;10.00;99.90;;;;;;5011305;28;20341;-71
2021/12/12 12:54:03;;;;;;;;;;;10.00;99.90;;;;;;5011722;28;20371;-69
2021/12/12 12:56:48;;;;;;;;;;;10.10;99.90;;;;;;5009283;28;19952;-70
2021/12/12 12:59:17;;;;;;;;;;;10.10;99.90;;;;;;5022761;28;20193;-70
2021/12/12 13:01:46;;;;;;;;;;;10.10;99.90;;;;;;5017495;28;19920;-71
2021/12/12 13:04:23;;;;;;;;;;;10.20;99.90;;;;;;5015297;28;19925;-69
2021/12/12 13:07:02;;;;;;;;;;;10.10;99.90;;;;;;5019467;28;20356;-71
2021/12/12 13:09:34;;;;;;;;;;;10.10;99.90;;;;;;5030952;28;20036;-68
2021/12/12 13:12:06;;;;;;;;;;;10.10;99.90;;;;;;5017152;28;19913;-71
2021/12/12 13:14:53;;;;;;;;;;;10.20;99.90;;;;;;5023022;28;19984;-70
2021/12/12 13:17:43;;;;;;;;;;;10.20;99.90;;;;;;5031690;28;19932;-71
2021/12/12 13:20:16;;;;;;;;;;;10.20;99.90;;;;;;4998409;28;19918;-71
2021/12/12 13:22:48;;;;;;;;;;;10.20;99.90;;;;;;5024980;28;19922;-70
2021/12/12 13:25:22;;;;;;;;;;;10.30;99.90;;;;;;5036066;28;19921;-71
2021/12/12 13:30:40;;;;;;;;;;;10.30;99.90;;;;;;5036011;28;19917;-72
2021/12/12 13:33:21;;;;;;;;;;;10.30;99.90;;;;;;5023517;28;19951;-71
2021/12/12 13:35:59;;;;;;;;;;;10.40;99.90;;;;;;5014336;28;19924;-71
2021/12/12 13:38:28;;;;;;;;;;;10.30;99.90;;;;;;5011328;28;20370;-72
2021/12/12 13:40:56;;;;;;;;;;;10.30;99.90;;;;;;5010193;28;19961;-71
2021/12/12 13:43:30;;;;;;;;;;;10.30;99.90;;;;;;5006237;28;19918;-71
2021/12/12 13:46:01;;;;;;;;;;;10.40;99.90;;;;;;5000240;28;20335;-73
2021/12/12 13:48:56;;;;;;;;;;;10.40;99.90;;;;;;5005588;28;19917;-72
2021/12/12 13:51:23;;;;;;;;;;;10.50;99.90;;;;;;4999442;28;19914;-72
2021/12/12 13:53:52;;;;;;;;;;;10.50;99.90;;;;;;5009087;28;19924;-73
2021/12/12 13:56:34;;;;;;;;;;;10.50;99.90;;;;;;5010066;28;19941;-71
2021/12/12 13:59:02;;;;;;;;;;;10.50;99.90;;;;;;5009857;28;19910;-72
2021/12/12 14:01:37;;;;;;;;;;;10.60;99.90;;;;;;5021409;28;20021;-74
2021/12/12 14:04:08;;;;;;;;;;;10.60;99.90;;;;;;5008449;28;19920;-71
2021/12/12 14:06:36;;;;;;;;;;;10.60;99.90;;;;;;5015359;28;20447;-71
2021/12/12 14:09:06;;;;;;;;;;;10.60;99.90;;;;;;5029667;28;19913;-73
2021/12/12 14:11:35;;;;;;;;;;;10.70;99.90;;;;;;5011538;28;20552;-73
2021/12/12 14:14:16;;;;;;;;;;;10.70;99.90;;;;;;5008999;28;19921;-71
2021/12/12 14:16:44;;;;;;;;;;;10.70;99.90;;;;;;5025486;28;19910;-71
2021/12/12 14:19:13;;;;;;;;;;;10.70;99.90;;;;;;5010063;28;20366;-71
2021/12/12 14:21:39;;;;;;;;;;;10.80;99.90;;;;;;5009315;28;19937;-72
2021/12/12 14:24:06;;;;;;;;;;;10.70;99.90;;;;;;5009948;28;19916;-71
2021/12/12 14:26:33;;;;;;;;;;;10.70;99.90;;;;;;5009696;28;19913;-71
2021/12/12 14:29:00;;;;;;;;;;;10.80;99.90;;;;;;5009873;28;19909;-73
2021/12/12 14:31:28;;;;;;;;;;;10.80;99.90;;;;;;5009455;28;19964;-71
2021/12/12 14:34:08;;;;;;;;;;;10.70;99.90;;;;;;5009739;28;19964;-72
2021/12/12 14:36:35;;;;;;;;;;;10.80;99.90;;;;;;5009478;28;20377;-71
2021/12/12 14:39:01;;;;;;;;;;;10.80;99.90;;;;;;5008955;28;20374;-70
2021/12/12 14:41:33;;;;;;;;;;;10.90;99.90;;;;;;5008515;28;19924;-72
2021/12/12 14:44:00;;;;;;;;;;;10.90;99.90;;;;;;5009654;28;19917;-69
2021/12/12 14:46:29;;;;;;;;;;;10.90;99.90;;;;;;5008549;28;19917;-72
2021/12/12 14:48:56;;;;;;;;;;;10.90;99.90;;;;;;5016712;28;20248;-71
2021/12/12 14:51:24;;;;;;;;;;;10.90;99.90;;;;;;5010369;28;20392;-70
2021/12/12 14:53:51;;;;;;;;;;;11.00;99.90;;;;;;5008960;28;20149;-70
2021/12/12 14:56:19;;;;;;;;;;;10.90;99.90;;;;;;5024070;28;20357;-71
2021/12/12 14:58:45;;;;;;;;;;;10.90;99.90;;;;;;5009075;28;19916;-71
2021/12/12 15:01:16;;;;;;;;;;;10.90;99.90;;;;;;5024003;28;19913;-70
2021/12/12 15:03:44;;;;;;;;;;;10.90;99.90;;;;;;5015648;28;20136;-71
2021/12/12 15:06:18;;;;;;;;;;;10.90;99.90;;;;;;5011678;28;20055;-71